Time;durP1;ratioP1;P1;durP2;ratioP2;P2;SDS_P1;SDS_P2;PMS_P1;PMS_P2;Temp;Humidity;BMP_temperature;BMP_pressure;BME280_temperature;BME280_humidity;BME280_pressure;Samples;Min_cycle;Max_cycle;Signal;HPM_P1;HPM_P2
2022/05/26 00:01:30;;;;;;;11.07;7.45;;;12.10;99.90;;;;;;7394544;19;20015;-73
2022/05/26 00:03:59;;;;;;;10.85;7.45;;;;;;;;;;7394018;19;20030;-73
2022/05/26 00:06:29;;;;;;;11.25;7.40;;;12.10;99.90;;;;;;7398268;19;20434;-73
2022/05/26 00:08:58;;;;;;;11.30;7.30;;;12.20;99.90;;;;;;7394187;19;20014;-73
2022/05/26 00:11:33;;;;;;;14.05;7.65;;;12.20;99.90;;;;;;7394439;19;20019;-73
2022/05/26 00:14:07;;;;;;;12.88;7.63;;;12.40;99.90;;;;;;7397019;19;20835;-73
2022/05/26 00:16:36;;;;;;;9.65;7.30;;;11.90;99.90;;;;;;7399196;19;20053;-73
2022/05/26 00:19:05;;;;;;;13.40;8.00;;;12.00;99.90;;;;;;7398423;19;20010;-74
2022/05/26 00:31:55;;;;;;;11.75;8.15;;;12.20;99.90;;;;;;7394956;19;20018;-73
2022/05/26 00:37:15;;;;;;;14.73;8.93;;;12.00;99.90;;;;;;7389137;19;20103;-73
2022/05/26 00:39:44;;;;;;;13.82;7.90;;;12.20;99.90;;;;;;7391135;19;20014;-73
2022/05/26 00:42:14;;;;;;;13.77;8.27;;;12.20;99.90;;;;;;7397339;19;20025;-72
2022/05/26 00:44:43;;;;;;;13.80;8.07;;;12.20;99.90;;;;;;7395698;19;20015;-73
2022/05/26 00:47:20;;;;;;;10.30;6.75;;;12.20;99.90;;;;;;7396317;19;20014;-73
2022/05/26 00:49:53;;;;;;;14.25;7.88;;;12.00;99.90;;;;;;7394151;19;20014;-72
2022/05/26 00:52:24;;;;;;;17.02;7.32;;;12.30;99.90;;;;;;7394622;19;20031;-73
2022/05/26 00:54:56;;;;;;;12.07;7.13;;;12.20;99.90;;;;;;7393510;19;20086;-73
2022/05/26 00:57:32;;;;;;;13.23;7.70;;;12.20;99.90;;;;;;7397726;19;20018;-73
2022/05/26 01:00:05;;;;;;;14.48;7.30;;;12.20;99.90;;;;;;7394451;19;20015;-72
2022/05/26 01:02:39;;;;;;;14.10;7.47;;;12.20;99.90;;;;;;7395852;19;20078;-73
2022/05/26 01:05:15;;;;;;;13.68;7.45;;;12.10;99.90;;;;;;7395064;19;20016;-73
2022/05/26 01:07:45;;;;;;;15.05;7.53;;;11.90;99.90;;;;;;7395678;19;20033;-73
2022/05/26 01:10:16;;;;;;;15.48;8.15;;;12.50;99.90;;;;;;7391649;19;20021;-73
2022/05/26 01:12:45;;;;;;;16.83;7.45;;;12.10;99.90;;;;;;7393571;19;20014;-72
2022/05/26 01:15:17;;;;;;;18.70;8.45;;;12.10;99.90;;;;;;7391812;19;20011;-73
2022/05/26 01:17:57;;;;;;;15.75;7.65;;;12.20;99.90;;;;;;7393778;19;20043;-72
2022/05/26 01:20:44;;;;;;;21.52;8.80;;;12.20;99.90;;;;;;7393473;19;20019;-73
2022/05/26 01:23:42;;;;;;;17.77;8.95;;;12.30;99.90;;;;;;7391655;19;20053;-73
2022/05/26 01:26:45;;;;;;;19.85;8.38;;;12.00;99.90;;;;;;7394155;19;20022;-73
2022/05/26 01:29:52;;;;;;;20.42;8.60;;;12.10;99.90;;;;;;7392229;19;20010;-73
2022/05/26 01:32:29;;;;;;;26.02;9.10;;;12.40;99.90;;;;;;7393707;19;20031;-73
2022/05/26 01:35:08;;;;;;;26.92;8.98;;;12.10;99.90;;;;;;7391907;19;20037;-73
2022/05/26 01:37:46;;;;;;;21.73;8.98;;;12.10;99.90;;;;;;7390647;19;20367;-73
2022/05/26 01:40:30;;;;;;;24.42;9.23;;;12.10;99.90;;;;;;7391220;19;20032;-73
2022/05/26 01:43:09;;;;;;;19.20;9.32;;;12.10;99.90;;;;;;7389882;19;20025;-73
2022/05/26 01:45:57;;;;;;;26.25;9.25;;;12.20;99.90;;;;;;7393836;19;20010;-73
2022/05/26 01:48:34;;;;;;;19.58;8.77;;;12.20;99.90;;;;;;7392552;19;20007;-73
2022/05/26 01:51:08;;;;;;;25.77;9.68;;;12.10;99.90;;;;;;7391111;19;20058;-74
2022/05/26 01:53:46;;;;;;;28.17;9.88;;;12.20;99.90;;;;;;7394177;19;20019;-73
2022/05/26 01:56:22;;;;;;;28.30;9.13;;;12.20;99.90;;;;;;7393537;19;20021;-73
2022/05/26 01:58:56;;;;;;;28.85;9.55;;;12.20;99.90;;;;;;7392169;19;20018;-73
2022/05/26 02:01:31;;;;;;;25.88;9.73;;;12.20;99.90;;;;;;7391852;19;20344;-73
2022/05/26 02:04:05;;;;;;;31.50;10.15;;;12.10;99.90;;;;;;7389598;19;20702;-74
2022/05/26 02:06:38;;;;;;;33.85;9.93;;;11.90;99.90;;;;;;7393873;19;20015;-73
2022/05/26 02:09:10;;;;;;;28.45;9.90;;;12.20;99.90;;;;;;7391514;19;20020;-73
2022/05/26 02:11:44;;;;;;;31.75;10.27;;;12.20;99.90;;;;;;7391673;19;20430;-73
2022/05/26 02:14:17;;;;;;;21.77;8.27;;;12.20;99.90;;;;;;7389755;19;20022;-73
2022/05/26 02:16:49;;;;;;;27.55;9.70;;;12.40;99.90;;;;;;7393233;19;20023;-74
2022/05/26 02:19:28;;;;;;;25.15;9.55;;;12.10;99.90;;;;;;7392665;19;20018;-74
2022/05/26 02:22:08;;;;;;;25.52;8.82;;;12.20;99.90;;;;;;7391782;19;20517;-74
2022/05/26 02:24:48;;;;;;;25.42;9.23;;;12.10;99.90;;;;;;7390631;19;20014;-74
2022/05/26 02:27:17;;;;;;;25.02;8.90;;;12.20;99.90;;;;;;7393384;19;20017;-73
2022/05/26 02:29:52;;;;;;;24.15;8.07;;;12.00;99.90;;;;;;7390694;19;20078;-73
2022/05/26 02:32:24;;;;;;;33.37;9.47;;;12.10;99.90;;;;;;7392818;19;20011;-73
2022/05/26 02:34:58;;;;;;;31.85;8.52;;;12.10;99.90;;;;;;7392297;19;20273;-73
2022/05/26 02:37:30;;;;;;;29.38;8.52;;;11.70;99.90;;;;;;7390871;19;20014;-73
2022/05/26 02:39:59;;;;;;;31.23;7.55;;;;;;;;;;7391676;19;20015;-74
2022/05/26 02:42:30;;;;;;;26.05;7.75;;;12.40;99.90;;;;;;7395326;19;20018;-73
2022/05/26 02:44:59;;;;;;;24.80;8.35;;;12.20;99.90;;;;;;7392133;19;20015;-73
2022/05/26 02:47:42;;;;;;;25.85;7.95;;;12.20;99.90;;;;;;7398331;19;20022;-72
2022/05/26 02:50:26;;;;;;;20.13;7.70;;;12.20;99.90;;;;;;7399677;19;20062;-73
2022/05/26 02:53:06;;;;;;;25.02;7.57;;;12.10;99.90;;;;;;7391407;19;20014;-73
2022/05/26 02:55:48;;;;;;;23.02;7.85;;;12.30;99.90;;;;;;7391863;19;20372;-73
2022/05/26 02:58:27;;;;;;;29.55;8.27;;;12.20;99.90;;;;;;7391151;19;20049;-73
2022/05/26 03:01:08;;;;;;;22.58;8.13;;;12.50;99.90;;;;;;7389938;19;20031;-73
2022/05/26 03:03:42;;;;;;;30.13;7.97;;;12.20;99.90;;;;;;7396179;19;20018;-73
2022/05/26 03:06:18;;;;;;;29.73;8.65;;;12.30;99.90;;;;;;7399839;19;20011;-72
2022/05/26 03:08:49;;;;;;;26.10;8.27;;;12.30;99.90;;;;;;7398679;19;20086;-73
2022/05/26 03:11:21;;;;;;;24.08;7.80;;;12.30;99.90;;;;;;7399370;19;20018;-73
2022/05/26 03:13:51;;;;;;;23.63;7.30;;;12.40;99.90;;;;;;7400007;19;20344;-73
2022/05/26 03:16:20;;;;;;;24.95;7.85;;;12.20;99.90;;;;;;7396379;19;20022;-73
2022/05/26 03:18:51;;;;;;;24.83;7.60;;;12.20;99.90;;;;;;7400522;19;20018;-73
2022/05/26 03:21:23;;;;;;;25.98;6.78;;;12.20;99.90;;;;;;7400364;19;20029;-73
2022/05/26 03:23:51;;;;;;;25.08;7.18;;;12.30;99.90;;;;;;7398650;19;20014;-73
2022/05/26 03:26:21;;;;;;;31.88;7.47;;;12.30;99.90;;;;;;7396449;19;20363;-73
2022/05/26 03:28:50;;;;;;;26.88;6.95;;;12.50;99.90;;;;;;7406266;19;20021;-72
2022/05/26 03:31:19;;;;;;;25.63;7.07;;;12.20;99.90;;;;;;7405035;19;20026;-72
2022/05/26 03:41:56;;;;;;;24.40;6.28;;;12.20;99.90;;;;;;7397971;19;20025;-73
2022/05/26 03:44:27;;;;;;;21.50;6.30;;;12.20;99.90;;;;;;7397022;19;20347;-72
2022/05/26 03:46:56;;;;;;;26.25;5.85;;;12.20;99.90;;;;;;7398039;19;20037;-72
2022/05/26 03:49:25;;;;;;;23.50;6.30;;;12.40;99.90;;;;;;7398390;19;20014;-72
2022/05/26 03:51:58;;;;;;;25.77;5.68;;;12.20;99.90;;;;;;7397753;19;20023;-73
2022/05/26 03:54:27;;;;;;;19.90;5.50;;;12.20;99.90;;;;;;7397207;19;20498;-73
2022/05/26 03:56:56;;;;;;;33.40;6.60;;;;;;;;;;7394924;19;20014;-72
2022/05/26 03:59:26;;;;;;;22.95;5.72;;;12.50;99.90;;;;;;7392596;19;20011;-72
2022/05/26 04:01:55;;;;;;;22.88;5.75;;;12.20;99.90;;;;;;7398196;19;20053;-73
2022/05/26 04:04:24;;;;;;;25.20;6.05;;;12.20;99.90;;;;;;7397511;19;22130;-73
2022/05/26 04:06:53;;;;;;;19.70;5.40;;;12.10;99.90;;;;;;7397849;19;20356;-72
2022/05/26 04:09:24;;;;;;;23.63;5.75;;;12.20;99.90;;;;;;7397407;19;20082;-73
2022/05/26 04:11:53;;;;;;;26.65;5.40;;;12.40;99.90;;;;;;7396786;19;20007;-73
2022/05/26 04:14:22;;;;;;;20.83;4.97;;;12.20;99.90;;;;;;7393202;19;20100;-73
2022/05/26 04:16:51;;;;;;;22.05;5.28;;;12.20;99.90;;;;;;7395131;19;20072;-73
2022/05/26 04:19:20;;;;;;;23.40;6.22;;;12.20;99.90;;;;;;7397108;19;20022;-73
2022/05/26 04:24:32;;;;;;;21.40;5.40;;;12.20;99.90;;;;;;7392804;19;20616;-73
2022/05/26 04:27:03;;;;;;;24.58;5.72;;;12.20;99.90;;;;;;7397624;19;20498;-73
2022/05/26 04:29:32;;;;;;;20.58;6.32;;;12.10;99.90;;;;;;7395518;19;20085;-74
2022/05/26 04:32:02;;;;;;;20.58;4.90;;;12.40;99.90;;;;;;7393728;19;20028;-72
2022/05/26 04:34:32;;;;;;;16.80;4.53;;;12.20;99.90;;;;;;7395157;19;20010;-73
2022/05/26 04:37:00;;;;;;;23.60;5.57;;;12.20;99.90;;;;;;7394005;19;20015;-73
2022/05/26 04:39:32;;;;;;;13.15;4.43;;;12.20;99.90;;;;;;7394035;19;20024;-72
2022/05/26 04:42:01;;;;;;;15.93;4.32;;;12.30;99.90;;;;;;7394164;19;20030;-74
2022/05/26 04:44:33;;;;;;;22.85;4.57;;;12.10;99.90;;;;;;7396194;19;20351;-72
2022/05/26 04:47:02;;;;;;;20.75;4.88;;;11.90;99.90;;;;;;7397680;19;20015;-72
2022/05/26 04:49:31;;;;;;;18.40;3.97;;;12.10;99.90;;;;;;7396940;19;20421;-73
2022/05/26 04:52:01;;;;;;;14.82;3.80;;;12.10;99.90;;;;;;7395375;19;20011;-72
2022/05/26 04:54:33;;;;;;;16.33;3.50;;;12.20;99.90;;;;;;7396072;19;20093;-72
2022/05/26 04:57:02;;;;;;;11.48;3.40;;;12.20;99.90;;;;;;7395520;19;20347;-72
2022/05/26 04:59:32;;;;;;;13.40;3.38;;;12.20;99.90;;;;;;7396322;19;20044;-73
2022/05/26 05:02:01;;;;;;;11.27;3.30;;;12.20;99.90;;;;;;7393631;19;20014;-72
2022/05/26 05:04:31;;;;;;;13.25;3.53;;;12.10;99.90;;;;;;7395881;19;20019;-72
2022/05/26 05:07:00;;;;;;;12.35;3.10;;;12.20;99.90;;;;;;7397193;19;20474;-72
2022/05/26 05:09:29;;;;;;;14.43;3.08;;;;;;;;;;7396285;19;20022;-72
2022/05/26 05:12:01;;;;;;;12.68;3.30;;;12.30;99.90;;;;;;7394974;19;20033;-72
2022/05/26 05:14:30;;;;;;;13.10;3.67;;;;;;;;;;7394690;19;20037;-72
2022/05/26 05:16:59;;;;;;;15.95;3.60;;;12.30;99.90;;;;;;7395162;19;20018;-72
2022/05/26 05:19:28;;;;;;;11.65;3.08;;;12.40;99.90;;;;;;7395356;19;20054;-72
2022/05/26 05:22:01;;;;;;;11.57;2.83;;;12.30;99.90;;;;;;7396369;19;20014;-72
2022/05/26 05:24:34;;;;;;;11.23;2.90;;;12.50;99.90;;;;;;7393071;19;20368;-73
2022/05/26 05:27:14;;;;;;;10.25;2.45;;;12.40;99.90;;;;;;7396375;19;20022;-72
2022/05/26 05:29:45;;;;;;;8.15;2.50;;;12.40;99.90;;;;;;7392974;19;20019;-72
2022/05/26 05:32:20;;;;;;;13.35;2.88;;;12.40;99.90;;;;;;7390544;19;20026;-73
2022/05/26 05:34:52;;;;;;;7.95;2.50;;;12.30;99.90;;;;;;7392583;19;20021;-73
2022/05/26 05:37:21;;;;;;;8.30;2.20;;;12.40;99.90;;;;;;7395068;19;20022;-73
2022/05/26 05:39:50;;;;;;;8.05;2.13;;;12.40;99.90;;;;;;7393044;19;20015;-72
2022/05/26 05:42:22;;;;;;;10.07;2.20;;;12.40;99.90;;;;;;7391986;19;20022;-73
2022/05/26 05:44:51;;;;;;;10.23;2.47;;;12.40;99.90;;;;;;7393490;19;20561;-72
2022/05/26 05:47:20;;;;;;;9.45;2.22;;;12.50;99.90;;;;;;7392936;19;20007;-72
2022/05/26 05:49:51;;;;;;;8.70;2.10;;;12.50;99.90;;;;;;7393424;19;20026;-73
2022/05/26 05:52:23;;;;;;;8.70;2.40;;;12.50;99.90;;;;;;7396797;19;20389;-74
2022/05/26 05:54:52;;;;;;;6.03;1.98;;;12.60;99.90;;;;;;7397851;19;20007;-74
2022/05/26 05:57:24;;;;;;;6.70;2.10;;;12.70;99.90;;;;;;7393301;19;20293;-73
2022/05/26 05:59:52;;;;;;;8.98;1.92;;;12.60;99.90;;;;;;7396141;19;20022;-73
2022/05/26 06:02:21;;;;;;;10.27;2.00;;;12.40;99.90;;;;;;7392385;19;20074;-73
2022/05/26 06:04:50;;;;;;;9.18;2.42;;;12.70;99.90;;;;;;7389419;19;20014;-74
2022/05/26 06:07:22;;;;;;;5.80;1.60;;;12.60;99.90;;;;;;7393580;19;20014;-74
2022/05/26 06:09:52;;;;;;;7.32;1.58;;;12.80;99.90;;;;;;7392856;19;20041;-74
2022/05/26 06:12:23;;;;;;;9.07;2.20;;;12.90;99.90;;;;;;7388713;19;20520;-75
2022/05/26 06:14:52;;;;;;;5.72;1.70;;;12.70;99.90;;;;;;7393205;19;20027;-75
2022/05/26 06:17:21;;;;;;;7.32;1.80;;;13.00;99.90;;;;;;7392171;19;20018;-74
2022/05/26 06:19:51;;;;;;;7.07;1.93;;;12.80;99.90;;;;;;7069185;19;5011000;-75
2022/05/26 06:22:22;;;;;;;7.95;1.70;;;12.80;99.90;;;;;;7394773;19;20015;-74
2022/05/26 06:24:52;;;;;;;9.57;2.10;;;12.80;99.90;;;;;;7392442;19;20489;-73
2022/05/26 06:30:07;;;;;;;8.30;1.73;;;12.90;99.90;;;;;;7390203;19;20374;-74
2022/05/26 06:38:08;;;;;;;4.60;1.52;;;13.00;99.90;;;;;;7406793;19;20051;-73
2022/05/26 06:40:38;;;;;;;5.82;1.80;;;13.10;99.90;;;;;;7404666;19;20054;-73
2022/05/26 06:43:10;;;;;;;6.13;1.63;;;13.00;99.90;;;;;;7400393;19;20015;-73
2022/05/26 06:45:39;;;;;;;4.75;1.52;;;13.10;99.90;;;;;;7399369;19;20022;-73
2022/05/26 06:48:09;;;;;;;9.32;1.80;;;13.20;99.90;;;;;;7400038;19;20430;-73
2022/05/26 06:50:38;;;;;;;5.95;1.35;;;13.10;99.90;;;;;;7397561;19;20111;-73
2022/05/26 06:53:08;;;;;;;4.72;1.83;;;13.20;99.90;;;;;;7397626;19;20014;-73
2022/05/26 06:55:37;;;;;;;8.00;1.70;;;13.20;99.90;;;;;;7401949;19;20414;-73
2022/05/26 06:58:09;;;;;;;7.57;1.80;;;13.30;99.90;;;;;;7401206;19;20074;-73
2022/05/26 07:00:38;;;;;;;5.68;1.38;;;13.30;99.90;;;;;;7397745;19;20245;-73
2022/05/26 07:03:07;;;;;;;6.28;1.50;;;13.30;99.90;;;;;;7399081;19;20019;-73
2022/05/26 07:05:38;;;;;;;6.18;1.60;;;13.40;99.90;;;;;;7395073;19;20018;-73
2022/05/26 07:08:07;;;;;;;6.03;1.50;;;13.40;99.90;;;;;;7399004;19;20078;-73
2022/05/26 07:10:37;;;;;;;7.05;1.70;;;;;;;;;;7397395;19;20015;-73
2022/05/26 07:13:09;;;;;;;3.88;1.48;;;13.50;99.90;;;;;;7398177;19;20700;-73
2022/05/26 07:15:38;;;;;;;4.85;1.40;;;13.50;99.90;;;;;;7398567;19;20015;-73
2022/05/26 07:18:08;;;;;;;6.97;1.98;;;13.60;99.90;;;;;;7396249;19;20046;-73
2022/05/26 07:20:39;;;;;;;4.05;1.80;;;13.70;99.90;;;;;;7398652;19;20035;-73
2022/05/26 07:23:10;;;;;;;6.03;1.48;;;13.80;99.90;;;;;;7398229;19;20018;-73
2022/05/26 07:25:42;;;;;;;4.75;1.75;;;13.70;99.90;;;;;;7395077;19;20904;-73
2022/05/26 07:28:13;;;;;;;8.10;2.00;;;13.70;99.90;;;;;;7398214;19;20018;-73
2022/05/26 07:30:43;;;;;;;6.63;1.70;;;13.80;99.90;;;;;;7394944;19;20025;-74
2022/05/26 07:33:12;;;;;;;5.20;1.55;;;13.80;99.90;;;;;;7395573;19;20015;-74
2022/05/26 07:35:41;;;;;;;9.63;1.85;;;13.80;99.90;;;;;;7392078;19;20021;-74
2022/05/26 07:43:37;;;;;;;5.38;1.70;;;13.80;99.90;;;;;;7390586;19;20033;-73
2022/05/26 07:46:07;;;;;;;5.78;1.95;;;13.80;99.90;;;;;;7397488;19;20035;-73
2022/05/26 07:48:39;;;;;;;5.80;1.30;;;13.80;99.90;;;;;;7397755;19;20010;-73
2022/05/26 07:51:07;;;;;;;6.68;1.42;;;13.90;99.90;;;;;;7397088;19;20023;-73
2022/05/26 07:53:37;;;;;;;4.75;1.13;;;13.90;99.90;;;;;;7393241;19;20380;-74
2022/05/26 07:56:07;;;;;;;5.30;1.30;;;13.90;99.90;;;;;;7396643;19;20018;-73
2022/05/26 07:58:38;;;;;;;5.45;1.30;;;13.80;99.90;;;;;;7383664;19;20014;-73
2022/05/26 08:01:08;;;;;;;7.25;1.40;;;13.90;99.90;;;;;;7396746;19;20019;-74
2022/05/26 08:03:38;;;;;;;6.00;1.58;;;14.00;99.90;;;;;;7396393;19;20042;-73
2022/05/26 08:06:08;;;;;;;6.65;1.60;;;14.10;99.90;;;;;;7398355;19;20147;-73
2022/05/26 08:08:38;;;;;;;3.58;1.50;;;14.00;99.90;;;;;;7395416;19;20475;-72
2022/05/26 08:11:07;;;;;;;5.43;1.38;;;14.20;99.90;;;;;;7396464;19;20020;-74
2022/05/26 08:13:39;;;;;;;4.72;1.85;;;14.30;99.90;;;;;;7395305;19;20018;-75
2022/05/26 08:16:09;;;;;;;3.03;1.40;;;14.20;99.90;;;;;;7391654;19;20668;-75
2022/05/26 08:18:38;;;;;;;6.72;1.70;;;14.50;99.90;;;;;;7393158;19;20039;-73
2022/05/26 08:21:10;;;;;;;7.05;1.60;;;14.40;99.90;;;;;;7395448;19;20014;-75
2022/05/26 08:23:40;;;;;;;6.18;1.60;;;14.20;99.90;;;;;;7397172;19;20049;-76
2022/05/26 08:26:09;;;;;;;7.15;1.35;;;14.50;99.90;;;;;;7392300;19;20359;-74
2022/05/26 08:28:42;;;;;;;4.65;1.60;;;14.60;99.90;;;;;;7393039;19;20049;-73
2022/05/26 08:31:13;;;;;;;4.13;1.40;;;14.80;99.90;;;;;;7396938;19;20015;-78
2022/05/26 08:33:42;;;;;;;4.47;1.60;;;14.70;99.90;;;;;;7392101;19;20014;-76
2022/05/26 08:36:13;;;;;;;5.25;1.40;;;14.70;99.90;;;;;;7395658;19;20010;-75
2022/05/26 08:38:43;;;;;;;5.10;1.30;;;15.00;99.90;;;;;;7391404;19;20034;-74
2022/05/26 08:41:17;;;;;;;4.35;1.45;;;14.70;99.90;;;;;;7396155;19;20025;-74
2022/05/26 08:43:54;;;;;;;7.38;1.60;;;14.80;99.90;;;;;;7394203;19;20482;-74
2022/05/26 08:46:25;;;;;;;4.57;1.35;;;15.00;99.90;;;;;;7394096;19;20022;-74
2022/05/26 08:49:01;;;;;;;4.32;1.58;;;14.50;99.90;;;;;;7394069;19;20430;-75
2022/05/26 08:51:45;;;;;;;7.75;1.38;;;15.00;99.90;;;;;;7392182;19;20045;-74
2022/05/26 08:54:21;;;;;;;6.93;1.45;;;14.80;99.90;;;;;;7394139;19;20027;-74
2022/05/26 08:56:52;;;;;;;3.95;1.30;;;14.60;99.90;;;;;;7394276;19;20010;-74
2022/05/26 08:59:31;;;;;;;4.43;1.20;;;14.90;99.90;;;;;;7396616;19;20038;-74
2022/05/26 09:02:03;;;;;;;3.53;1.05;;;14.80;99.90;;;;;;7389217;19;20082;-74
2022/05/26 09:04:34;;;;;;;4.38;1.20;;;14.80;99.90;;;;;;7397942;19;20019;-74
2022/05/26 09:15:23;;;;;;;3.95;1.20;;;15.30;99.90;;;;;;7409577;19;20039;-74
2022/05/26 09:17:52;;;;;;;4.95;1.20;;;15.00;99.90;;;;;;7408224;19;20041;-73
2022/05/26 09:20:33;;;;;;;5.20;1.27;;;14.70;99.90;;;;;;7406281;19;20018;-74
2022/05/26 09:23:27;;;;;;;3.85;1.13;;;15.10;99.90;;;;;;7402900;19;20038;-74
2022/05/26 09:26:05;;;;;;;4.53;1.40;;;15.30;99.90;;;;;;7398996;19;20018;-74
2022/05/26 09:28:43;;;;;;;4.88;1.23;;;15.30;99.90;;;;;;7395658;19;20035;-74
2022/05/26 09:31:28;;;;;;;4.78;1.40;;;15.50;99.90;;;;;;7394069;19;20018;-74
2022/05/26 09:34:10;;;;;;;4.03;1.02;;;15.10;99.90;;;;;;7393966;19;20474;-74
2022/05/26 09:36:48;;;;;;;2.42;1.00;;;15.70;99.90;;;;;;7393659;19;20090;-74
2022/05/26 09:39:21;;;;;;;4.22;1.00;;;15.60;99.90;;;;;;7389458;19;20011;-74
2022/05/26 09:41:53;;;;;;;3.28;1.27;;;15.80;99.90;;;;;;7392906;19;20006;-74
2022/05/26 09:44:33;;;;;;;5.63;1.35;;;15.60;99.90;;;;;;7395870;19;20026;-74
2022/05/26 09:47:08;;;;;;;4.22;1.40;;;15.70;99.90;;;;;;7399072;19;20014;-74
2022/05/26 09:49:44;;;;;;;4.70;1.08;;;15.50;99.90;;;;;;7404416;19;20018;-74
2022/05/26 09:52:17;;;;;;;4.38;1.10;;;15.60;99.90;;;;;;7405383;19;20011;-73
2022/05/26 09:54:49;;;;;;;;;;;15.80;99.90;;;;;;7394787;19;20006;-74
2022/05/26 09:57:22;;;;;;;5.57;1.25;;;15.70;99.90;;;;;;7388892;19;19929;-74
2022/05/26 09:59:51;;;;;;;4.25;1.00;;;15.80;99.90;;;;;;7390492;19;20050;-73
2022/05/26 10:02:28;;;;;;;5.45;1.33;;;15.70;99.90;;;;;;7394752;19;20018;-74
2022/05/26 10:05:03;;;;;;;3.67;1.30;;;15.80;99.90;;;;;;7394026;19;20010;-74
2022/05/26 10:07:49;;;;;;;5.03;1.08;;;16.10;99.90;;;;;;7394258;19;20023;-74
2022/05/26 10:10:25;;;;;;;3.50;1.20;;;15.80;99.90;;;;;;7394891;19;20018;-74
2022/05/26 10:13:07;;;;;;;3.08;0.93;;;16.10;99.90;;;;;;7392584;19;20019;-74
2022/05/26 10:15:48;;;;;;;4.30;1.08;;;15.40;99.90;;;;;;7391967;19;20018;-74
2022/05/26 10:18:39;;;;;;;3.53;1.10;;;15.90;99.90;;;;;;7388577;19;20340;-74
2022/05/26 10:21:15;;;;;;;3.38;1.15;;;16.00;99.90;;;;;;7393586;19;20014;-74
2022/05/26 10:24:05;;;;;;;3.05;0.90;;;16.00;99.90;;;;;;7394608;19;20483;-74
2022/05/26 10:26:43;;;;;;;3.88;0.98;;;16.10;99.50;;;;;;7395292;19;20057;-74
2022/05/26 10:29:33;;;;;;;4.00;1.33;;;16.30;99.90;;;;;;7392710;19;20018;-74
2022/05/26 10:32:19;;;;;;;3.42;1.08;;;16.10;98.40;;;;;;7387245;19;20020;-74
2022/05/26 10:35:16;;;;;;;3.10;1.20;;;16.20;99.90;;;;;;7389498;19;20007;-74
2022/05/26 10:38:05;;;;;;;4.82;1.08;;;16.20;99.00;;;;;;7389843;19;20038;-74
2022/05/26 10:40:42;;;;;;;4.38;1.00;;;16.30;99.00;;;;;;7386597;19;20126;-74
2022/05/26 10:43:15;;;;;;;6.03;1.20;;;16.30;99.10;;;;;;7390654;19;20010;-73
2022/05/26 10:45:48;;;;;;;5.05;1.20;;;16.20;99.90;;;;;;7393947;19;20073;-74
2022/05/26 10:48:24;;;;;;;5.55;1.30;;;16.60;99.90;;;;;;7389542;19;20082;-73
2022/05/26 10:51:01;;;;;;;4.80;1.10;;;16.70;99.50;;;;;;7390772;19;20402;-74
2022/05/26 10:53:36;;;;;;;3.60;1.05;;;16.90;98.20;;;;;;7393123;19;20078;-74
2022/05/26 10:56:12;;;;;;;4.85;1.73;;;17.00;98.60;;;;;;7388628;19;20327;-74
2022/05/26 10:58:45;;;;;;;2.10;0.73;;;16.70;98.50;;;;;;7390526;19;20349;-74
2022/05/26 11:01:30;;;;;;;3.42;1.05;;;16.80;98.90;;;;;;7391465;19;20015;-74
2022/05/26 11:04:09;;;;;;;5.70;1.10;;;17.30;99.90;;;;;;7387543;19;20470;-74
2022/05/26 11:06:44;;;;;;;4.60;1.10;;;17.20;99.60;;;;;;7388457;19;20385;-74
2022/05/26 11:09:18;;;;;;;3.92;1.10;;;17.20;99.90;;;;;;7391678;19;20436;-75
2022/05/26 11:11:50;;;;;;;5.25;1.63;;;17.40;99.90;;;;;;7389540;19;20078;-74
2022/05/26 11:17:26;;;;;;;2.80;1.10;;;17.30;99.90;;;;;;7391308;19;20025;-74
2022/05/26 11:20:03;;;;;;;4.93;1.65;;;17.10;99.10;;;;;;7389338;19;20018;-74
2022/05/26 11:22:34;;;;;;;4.95;1.30;;;17.20;98.70;;;;;;7392993;19;20027;-74
2022/05/26 11:25:03;;;;;;;3.40;0.90;;;17.10;98.80;;;;;;7399341;19;20085;-74
2022/05/26 11:27:39;;;;;;;2.40;1.00;;;17.10;98.60;;;;;;7399132;19;20053;-74
2022/05/26 11:36:07;;;;;;;6.07;1.27;;;17.00;99.10;;;;;;7398731;19;20076;-74
2022/05/26 11:38:35;;;;;;;5.28;1.25;;;16.80;99.90;;;;;;7397864;19;20090;-74
2022/05/26 11:41:09;;;;;;;4.28;1.30;;;16.90;99.90;;;;;;7397475;19;20086;-74
2022/05/26 11:43:44;;;;;;;5.35;1.60;;;17.00;99.90;;;;;;7400279;19;20118;-74
2022/05/26 11:46:35;;;;;;;4.87;1.57;;;17.20;99.90;;;;;;7397481;19;20355;-74
2022/05/26 11:49:04;;;;;;;6.97;1.77;;;17.10;99.90;;;;;;7399453;19;20275;-74
2022/05/26 11:51:39;;;;;;;4.53;1.60;;;16.70;99.90;;;;;;7397215;19;20018;-74
2022/05/26 11:54:12;;;;;;;4.27;1.43;;;17.30;99.90;;;;;;7399957;19;20011;-74
2022/05/26 11:56:46;;;;;;;5.78;1.30;;;17.10;99.90;;;;;;7398303;19;20024;-74
2022/05/26 11:59:43;;;;;;;6.32;1.88;;;17.10;99.90;;;;;;7396260;19;20486;-75
2022/05/26 12:02:39;;;;;;;4.43;1.20;;;16.90;99.90;;;;;;7395036;19;20031;-72
2022/05/26 12:05:39;;;;;;;4.60;1.20;;;16.90;99.90;;;;;;7399106;19;20038;-74
2022/05/26 12:08:24;;;;;;;7.30;2.03;;;16.70;99.90;;;;;;7396313;19;20021;-74
2022/05/26 12:10:58;;;;;;;7.28;2.33;;;16.80;99.90;;;;;;7395837;19;20134;-74
2022/05/26 12:13:36;;;;;;;7.03;3.00;;;16.80;99.90;;;;;;7397335;19;20018;-74
2022/05/26 12:16:12;;;;;;;26.50;8.10;;;16.70;99.90;;;;;;7399135;19;20022;-74
2022/05/26 12:18:46;;;;;;;12.90;5.18;;;16.70;99.90;;;;;;7397813;19;20014;-74
2022/05/26 12:21:19;;;;;;;4.97;2.00;;;16.70;99.90;;;;;;7402490;19;20424;-73
2022/05/26 12:23:48;;;;;;;7.20;3.05;;;16.60;99.90;;;;;;7405415;19;20011;-73
2022/05/26 12:26:32;;;;;;;5.10;1.90;;;16.90;99.90;;;;;;7405758;19;20014;-73
2022/05/26 12:29:31;;;;;;;6.70;2.03;;;17.20;99.90;;;;;;7398226;19;20038;-74
2022/05/26 12:32:12;;;;;;;5.15;1.77;;;17.30;99.90;;;;;;7403526;19;20034;-73
2022/05/26 12:34:57;;;;;;;5.07;1.80;;;17.20;99.90;;;;;;7405132;19;20368;-74
2022/05/26 12:37:44;;;;;;;4.83;1.47;;;16.80;99.90;;;;;;7396264;19;20044;-74
2022/05/26 12:40:39;;;;;;;3.58;1.67;;;16.70;99.90;;;;;;7399130;19;20288;-74
2022/05/26 12:43:27;;;;;;;3.33;1.40;;;16.60;99.90;;;;;;7398136;19;20026;-74
2022/05/26 12:46:02;;;;;;;4.40;1.65;;;16.50;99.90;;;;;;7398050;19;20079;-73
2022/05/26 12:49:01;;;;;;;4.97;1.40;;;16.60;99.90;;;;;;7396540;19;20010;-73
2022/05/26 12:51:36;;;;;;;4.30;1.30;;;17.10;99.90;;;;;;7396255;19;20038;-73
2022/05/26 12:54:09;;;;;;;3.78;1.30;;;17.00;99.90;;;;;;7397100;19;20014;-74
2022/05/26 12:56:47;;;;;;;5.25;1.48;;;16.40;99.90;;;;;;7394504;19;20018;-74
2022/05/26 12:59:25;;;;;;;6.80;1.33;;;16.80;99.90;;;;;;7395183;19;20018;-74
2022/05/26 13:01:54;;;;;;;5.28;1.70;;;16.80;99.90;;;;;;7397159;19;20015;-74
2022/05/26 13:04:32;;;;;;;7.15;1.42;;;16.60;99.90;;;;;;7394969;19;20015;-73
2022/05/26 13:07:07;;;;;;;5.82;1.55;;;16.60;99.90;;;;;;7393933;19;20017;-73
2022/05/26 13:09:44;;;;;;;5.60;1.30;;;16.80;99.90;;;;;;7393373;19;20367;-74
2022/05/26 13:12:20;;;;;;;2.53;1.17;;;16.90;99.90;;;;;;7402155;19;20014;-74
2022/05/26 13:14:54;;;;;;;4.07;1.25;;;17.00;99.90;;;;;;7404484;19;20018;-73
2022/05/26 13:17:28;;;;;;;5.15;1.50;;;16.80;99.90;;;;;;7400024;19;20022;-74
2022/05/26 13:20:00;;;;;;;6.68;2.05;;;16.90;99.90;;;;;;7392942;19;20031;-73
2022/05/26 13:22:31;;;;;;;5.88;1.70;;;16.70;99.90;;;;;;7395606;19;20011;-74
2022/05/26 13:25:02;;;;;;;4.82;1.52;;;16.30;99.90;;;;;;7395771;19;20014;-73
2022/05/26 13:27:47;;;;;;;6.07;1.70;;;16.50;99.90;;;;;;7395615;19;20019;-74
2022/05/26 13:33:11;;;;;;;6.65;1.80;;;16.20;99.90;;;;;;7395646;19;20018;-73
2022/05/26 13:35:45;;;;;;;5.35;1.50;;;16.30;99.90;;;;;;7395934;19;20057;-74
2022/05/26 13:38:29;;;;;;;6.15;1.70;;;16.20;99.90;;;;;;7395336;19;20082;-74
2022/05/26 13:40:58;;;;;;;5.22;1.80;;;16.20;99.90;;;;;;7394185;19;20017;-73
2022/05/26 13:43:28;;;;;;;5.93;1.80;;;16.50;99.90;;;;;;7392363;19;20022;-73
2022/05/26 13:46:00;;;;;;;6.45;1.90;;;16.00;99.90;;;;;;7390591;19;20082;-74
2022/05/26 13:48:38;;;;;;;4.55;1.70;;;16.20;99.90;;;;;;7394853;19;20417;-74
2022/05/26 13:51:15;;;;;;;6.05;1.67;;;16.10;99.90;;;;;;7391821;19;20486;-73
2022/05/26 13:53:46;;;;;;;5.43;1.50;;;16.10;99.90;;;;;;7392577;19;20025;-74
2022/05/26 13:56:25;;;;;;;2.58;1.25;;;16.10;99.90;;;;;;7394129;19;20449;-75
2022/05/26 13:58:56;;;;;;;7.05;1.60;;;16.20;99.90;;;;;;7393755;19;20024;-73
2022/05/26 14:01:30;;;;;;;6.13;1.73;;;16.00;99.90;;;;;;7390204;19;20355;-73
2022/05/26 14:04:02;;;;;;;3.67;1.40;;;16.00;99.90;;;;;;7393387;19;20006;-74
2022/05/26 14:06:34;;;;;;;4.55;1.70;;;16.20;99.90;;;;;;7392149;19;20511;-73
2022/05/26 14:09:25;;;;;;;3.88;1.50;;;16.20;99.90;;;;;;7393973;19;20014;-74
2022/05/26 14:12:03;;;;;;;5.38;1.73;;;16.00;99.90;;;;;;7390648;19;20042;-73
2022/05/26 14:14:41;;;;;;;5.53;1.45;;;16.00;99.90;;;;;;7390650;19;20014;-74
2022/05/26 14:17:27;;;;;;;6.40;1.83;;;16.00;99.90;;;;;;7390395;19;20025;-74
2022/05/26 14:19:59;;;;;;;6.75;1.70;;;16.10;99.90;;;;;;7387760;19;20062;-74